sensor_id;sensor_type;location;lat;lon;timestamp;temperature;humidity
3360;DHT22;1693;49.602;11.046;2024-03-07T00:00:26;1.80;99.90
3360;DHT22;1693;49.602;11.046;2024-03-07T00:02:53;1.80;99.90
3360;DHT22;1693;49.602;11.046;2024-03-07T00:05:21;1.80;99.90
3360;DHT22;1693;49.602;11.046;2024-03-07T00:07:50;1.80;99.90
3360;DHT22;1693;49.602;11.046;2024-03-07T00:10:19;1.80;99.90
3360;DHT22;1693;49.602;11.046;2024-03-07T00:12:48;1.80;99.90
3360;DHT22;1693;49.602;11.046;2024-03-07T00:15:15;1.70;99.90
3360;DHT22;1693;49.602;11.046;2024-03-07T00:17:43;1.60;99.90
3360;DHT22;1693;49.602;11.046;2024-03-07T00:20:11;1.50;99.90
3360;DHT22;1693;49.602;11.046;2024-03-07T00:22:40;1.50;99.90
3360;DHT22;1693;49.602;11.046;2024-03-07T00:25:09;1.40;99.90
3360;DHT22;1693;49.602;11.046;2024-03-07T00:27:40;1.40;99.90
3360;DHT22;1693;49.602;11.046;2024-03-07T00:30:11;1.60;99.90
3360;DHT22;1693;49.602;11.046;2024-03-07T00:32:39;1.70;99.90
3360;DHT22;1693;49.602;11.046;2024-03-07T00:35:07;1.70;99.90
3360;DHT22;1693;49.602;11.046;2024-03-07T00:37:35;1.60;99.90
3360;DHT22;1693;49.602;11.046;2024-03-07T00:40:03;1.50;99.90
3360;DHT22;1693;49.602;11.046;2024-03-07T00:42:29;1.40;99.90
3360;DHT22;1693;49.602;11.046;2024-03-07T00:44:58;1.30;99.90
3360;DHT22;1693;49.602;11.046;2024-03-07T00:47:25;1.40;99.90
3360;DHT22;1693;49.602;11.046;2024-03-07T00:49:52;1.30;99.90
3360;DHT22;1693;49.602;11.046;2024-03-07T00:52:19;1.30;99.90
3360;DHT22;1693;49.602;11.046;2024-03-07T00:54:47;1.20;99.90
3360;DHT22;1693;49.602;11.046;2024-03-07T00:57:13;1.10;99.90
3360;DHT22;1693;49.602;11.046;2024-03-07T00:59:41;1.10;99.90
3360;DHT22;1693;49.602;11.046;2024-03-07T01:02:09;1.10;99.90
3360;DHT22;1693;49.602;11.046;2024-03-07T01:04:36;1.10;99.90
3360;DHT22;1693;49.602;11.046;2024-03-07T01:07:04;1.10;99.90
3360;DHT22;1693;49.602;11.046;2024-03-07T01:09:31;1.20;99.90
3360;DHT22;1693;49.602;11.046;2024-03-07T01:11:58;1.20;99.90
3360;DHT22;1693;49.602;11.046;2024-03-07T01:14:25;1.20;99.90
3360;DHT22;1693;49.602;11.046;2024-03-07T01:16:52;1.30;99.90
3360;DHT22;1693;49.602;11.046;2024-03-07T01:19:21;1.50;99.90
3360;DHT22;1693;49.602;11.046;2024-03-07T01:21:48;1.50;99.90
3360;DHT22;1693;49.602;11.046;2024-03-07T01:24:15;1.60;99.90
3360;DHT22;1693;49.602;11.046;2024-03-07T01:26:43;1.70;99.90
3360;DHT22;1693;49.602;11.046;2024-03-07T01:29:10;1.90;99.90
3360;DHT22;1693;49.602;11.046;2024-03-07T01:31:38;2.10;99.90
3360;DHT22;1693;49.602;11.046;2024-03-07T01:34:04;2.10;99.90
3360;DHT22;1693;49.602;11.046;2024-03-07T01:36:33;2.10;99.90
3360;DHT22;1693;49.602;11.046;2024-03-07T01:39:00;2.20;99.90
3360;DHT22;1693;49.602;11.046;2024-03-07T01:41:29;2.10;99.90
3360;DHT22;1693;49.602;11.046;2024-03-07T01:43:55;2.10;99.90
3360;DHT22;1693;49.602;11.046;2024-03-07T01:46:23;2.10;99.90
3360;DHT22;1693;49.602;11.046;2024-03-07T01:48:50;2.20;99.90
3360;DHT22;1693;49.602;11.046;2024-03-07T01:51:17;2.20;99.90
3360;DHT22;1693;49.602;11.046;2024-03-07T01:53:45;2.30;99.90
3360;DHT22;1693;49.602;11.046;2024-03-07T01:56:13;2.30;99.90
3360;DHT22;1693;49.602;11.046;2024-03-07T01:58:41;2.30;99.90
3360;DHT22;1693;49.602;11.046;2024-03-07T02:01:10;2.50;99.90
3360;DHT22;1693;49.602;11.046;2024-03-07T02:03:40;2.60;99.90
3360;DHT22;1693;49.602;11.046;2024-03-07T02:06:07;2.60;99.90
3360;DHT22;1693;49.602;11.046;2024-03-07T02:08:34;2.70;99.90
3360;DHT22;1693;49.602;11.046;2024-03-07T02:11:03;2.90;99.90
3360;DHT22;1693;49.602;11.046;2024-03-07T02:13:30;2.90;99.90
3360;DHT22;1693;49.602;11.046;2024-03-07T02:15:58;3.00;99.90
3360;DHT22;1693;49.602;11.046;2024-03-07T02:18:25;3.10;99.90
3360;DHT22;1693;49.602;11.046;2024-03-07T02:20:54;3.00;99.90
3360;DHT22;1693;49.602;11.046;2024-03-07T02:23:22;3.10;99.90
3360;DHT22;1693;49.602;11.046;2024-03-07T02:25:49;3.20;99.90
3360;DHT22;1693;49.602;11.046;2024-03-07T02:28:16;3.30;99.90
3360;DHT22;1693;49.602;11.046;2024-03-07T02:30:43;3.40;99.90
3360;DHT22;1693;49.602;11.046;2024-03-07T02:33:11;3.40;99.90
3360;DHT22;1693;49.602;11.046;2024-03-07T02:35:38;3.30;99.90
3360;DHT22;1693;49.602;11.046;2024-03-07T02:38:06;3.40;99.90
3360;DHT22;1693;49.602;11.046;2024-03-07T02:40:34;3.40;99.90
3360;DHT22;1693;49.602;11.046;2024-03-07T02:43:01;3.40;99.90
3360;DHT22;1693;49.602;11.046;2024-03-07T02:45:30;3.30;99.90
3360;DHT22;1693;49.602;11.046;2024-03-07T02:47:57;3.20;99.90
3360;DHT22;1693;49.602;11.046;2024-03-07T02:50:26;3.10;99.90
3360;DHT22;1693;49.602;11.046;2024-03-07T02:52:52;3.10;99.90
3360;DHT22;1693;49.602;11.046;2024-03-07T02:55:21;2.90;99.90
3360;DHT22;1693;49.602;11.046;2024-03-07T02:57:48;2.90;99.90
3360;DHT22;1693;49.602;11.046;2024-03-07T03:00:28;2.80;99.90
3360;DHT22;1693;49.602;11.046;2024-03-07T03:03:05;2.80;99.90
3360;DHT22;1693;49.602;11.046;2024-03-07T03:05:32;2.70;99.90
3360;DHT22;1693;49.602;11.046;2024-03-07T03:08:00;2.60;99.90
3360;DHT22;1693;49.602;11.046;2024-03-07T03:10:29;2.60;99.90
3360;DHT22;1693;49.602;11.046;2024-03-07T03:12:57;2.50;99.90
3360;DHT22;1693;49.602;11.046;2024-03-07T03:15:25;2.60;99.90
3360;DHT22;1693;49.602;11.046;2024-03-07T03:17:53;2.60;99.90
3360;DHT22;1693;49.602;11.046;2024-03-07T03:20:20;2.50;99.90
3360;DHT22;1693;49.602;11.046;2024-03-07T03:22:59;2.60;99.90
3360;DHT22;1693;49.602;11.046;2024-03-07T03:25:30;2.50;99.90
3360;DHT22;1693;49.602;11.046;2024-03-07T03:27:58;2.40;99.90
3360;DHT22;1693;49.602;11.046;2024-03-07T03:30:25;2.30;99.90
3360;DHT22;1693;49.602;11.046;2024-03-07T03:32:52;2.20;99.90
3360;DHT22;1693;49.602;11.046;2024-03-07T03:35:19;2.10;99.90
3360;DHT22;1693;49.602;11.046;2024-03-07T03:37:46;1.90;99.90
3360;DHT22;1693;49.602;11.046;2024-03-07T03:40:13;1.80;99.90
3360;DHT22;1693;49.602;11.046;2024-03-07T03:42:42;1.70;99.90
3360;DHT22;1693;49.602;11.046;2024-03-07T03:45:10;1.60;99.90
3360;DHT22;1693;49.602;11.046;2024-03-07T03:47:40;1.50;99.90
3360;DHT22;1693;49.602;11.046;2024-03-07T03:50:09;1.50;99.90
3360;DHT22;1693;49.602;11.046;2024-03-07T03:52:36;1.40;99.90
3360;DHT22;1693;49.602;11.046;2024-03-07T03:55:05;1.20;99.90
3360;DHT22;1693;49.602;11.046;2024-03-07T03:57:32;1.20;99.90
3360;DHT22;1693;49.602;11.046;2024-03-07T04:00:01;1.10;99.90
3360;DHT22;1693;49.602;11.046;2024-03-07T04:02:33;1.10;99.90
3360;DHT22;1693;49.602;11.046;2024-03-07T04:05:00;1.10;99.90
3360;DHT22;1693;49.602;11.046;2024-03-07T04:07:27;1.10;99.90
3360;DHT22;1693;49.602;11.046;2024-03-07T04:09:54;1.00;99.90
3360;DHT22;1693;49.602;11.046;2024-03-07T04:12:21;1.00;99.90
3360;DHT22;1693;49.602;11.046;2024-03-07T04:14:48;0.90;99.90
3360;DHT22;1693;49.602;11.046;2024-03-07T04:17:17;0.70;99.90
3360;DHT22;1693;49.602;11.046;2024-03-07T04:19:46;0.50;99.90
3360;DHT22;1693;49.602;11.046;2024-03-07T04:22:13;0.40;99.90
3360;DHT22;1693;49.602;11.046;2024-03-07T04:24:41;0.30;99.90
3360;DHT22;1693;49.602;11.046;2024-03-07T04:27:08;0.30;99.90
3360;DHT22;1693;49.602;11.046;2024-03-07T04:29:35;0.20;99.90
3360;DHT22;1693;49.602;11.046;2024-03-07T04:32:03;0.10;99.90
3360;DHT22;1693;49.602;11.046;2024-03-07T04:34:31;0.10;99.90
3360;DHT22;1693;49.602;11.046;2024-03-07T04:36:59;0.00;99.90
3360;DHT22;1693;49.602;11.046;2024-03-07T04:39:27;0.00;99.90
3360;DHT22;1693;49.602;11.046;2024-03-07T04:41:58;0.10;99.90
3360;DHT22;1693;49.602;11.046;2024-03-07T04:44:26;0.10;99.90
3360;DHT22;1693;49.602;11.046;2024-03-07T04:46:54;0.10;99.90
3360;DHT22;1693;49.602;11.046;2024-03-07T04:49:22;0.10;99.90
3360;DHT22;1693;49.602;11.046;2024-03-07T04:51:51;0.10;99.90
3360;DHT22;1693;49.602;11.046;2024-03-07T04:54:18;0.10;99.90
3360;DHT22;1693;49.602;11.046;2024-03-07T04:56:45;0.10;99.90
3360;DHT22;1693;49.602;11.046;2024-03-07T04:59:12;0.10;99.90
3360;DHT22;1693;49.602;11.046;2024-03-07T05:01:40;0.10;99.90
3360;DHT22;1693;49.602;11.046;2024-03-07T05:04:07;0.20;99.90
3360;DHT22;1693;49.602;11.046;2024-03-07T05:06:34;0.20;99.90
3360;DHT22;1693;49.602;11.046;2024-03-07T05:09:03;0.20;99.90
3360;DHT22;1693;49.602;11.046;2024-03-07T05:11:30;0.20;99.90
3360;DHT22;1693;49.602;11.046;2024-03-07T05:13:57;0.20;99.90
3360;DHT22;1693;49.602;11.046;2024-03-07T05:16:26;0.10;99.90
3360;DHT22;1693;49.602;11.046;2024-03-07T05:18:53;0.10;99.90
3360;DHT22;1693;49.602;11.046;2024-03-07T05:21:20;0.00;99.90
3360;DHT22;1693;49.602;11.046;2024-03-07T05:24:00;0.00;99.90
3360;DHT22;1693;49.602;11.046;2024-03-07T05:26:30;0.10;99.90
3360;DHT22;1693;49.602;11.046;2024-03-07T05:29:00;0.10;99.90
3360;DHT22;1693;49.602;11.046;2024-03-07T05:31:29;0.10;99.90
3360;DHT22;1693;49.602;11.046;2024-03-07T05:33:56;0.10;99.90
3360;DHT22;1693;49.602;11.046;2024-03-07T05:36:23;0.10;99.90
3360;DHT22;1693;49.602;11.046;2024-03-07T05:38:50;0.10;99.90
3360;DHT22;1693;49.602;11.046;2024-03-07T05:41:17;0.10;99.90
3360;DHT22;1693;49.602;11.046;2024-03-07T05:43:45;0.10;99.90
3360;DHT22;1693;49.602;11.046;2024-03-07T05:46:12;0.10;99.90
3360;DHT22;1693;49.602;11.046;2024-03-07T05:48:39;0.00;99.90
3360;DHT22;1693;49.602;11.046;2024-03-07T05:51:06;0.00;99.90
3360;DHT22;1693;49.602;11.046;2024-03-07T05:53:35;-0.10;99.90
3360;DHT22;1693;49.602;11.046;2024-03-07T05:56:03;-0.20;99.90
3360;DHT22;1693;49.602;11.046;2024-03-07T05:58:33;-0.20;99.90
3360;DHT22;1693;49.602;11.046;2024-03-07T06:01:02;-0.20;99.90
3360;DHT22;1693;49.602;11.046;2024-03-07T06:03:29;-0.20;99.90
3360;DHT22;1693;49.602;11.046;2024-03-07T06:05:56;-0.20;99.90
3360;DHT22;1693;49.602;11.046;2024-03-07T06:08:24;-0.10;99.90
3360;DHT22;1693;49.602;11.046;2024-03-07T06:10:51;0.00;99.90
3360;DHT22;1693;49.602;11.046;2024-03-07T06:13:19;0.10;99.90
3360;DHT22;1693;49.602;11.046;2024-03-07T06:15:48;0.20;99.90
3360;DHT22;1693;49.602;11.046;2024-03-07T06:18:20;0.30;99.90
3360;DHT22;1693;49.602;11.046;2024-03-07T06:20:47;0.40;99.90
3360;DHT22;1693;49.602;11.046;2024-03-07T06:23:21;0.50;99.90
3360;DHT22;1693;49.602;11.046;2024-03-07T06:25:48;0.60;99.90
3360;DHT22;1693;49.602;11.046;2024-03-07T06:28:17;0.80;99.90
3360;DHT22;1693;49.602;11.046;2024-03-07T06:30:45;0.90;99.90
3360;DHT22;1693;49.602;11.046;2024-03-07T06:33:13;1.00;99.90
3360;DHT22;1693;49.602;11.046;2024-03-07T06:35:44;1.20;99.90
3360;DHT22;1693;49.602;11.046;2024-03-07T06:38:11;1.20;99.90
3360;DHT22;1693;49.602;11.046;2024-03-07T06:40:40;1.40;99.90
3360;DHT22;1693;49.602;11.046;2024-03-07T06:43:10;1.60;99.90
3360;DHT22;1693;49.602;11.046;2024-03-07T06:45:38;1.70;99.90
3360;DHT22;1693;49.602;11.046;2024-03-07T06:48:08;1.90;99.90
3360;DHT22;1693;49.602;11.046;2024-03-07T06:50:35;2.00;99.90
3360;DHT22;1693;49.602;11.046;2024-03-07T06:53:05;2.20;99.90
3360;DHT22;1693;49.602;11.046;2024-03-07T06:55:33;2.50;99.90
3360;DHT22;1693;49.602;11.046;2024-03-07T06:58:03;2.50;99.90
3360;DHT22;1693;49.602;11.046;2024-03-07T07:00:36;2.70;99.90
3360;DHT22;1693;49.602;11.046;2024-03-07T07:03:05;2.80;99.90
3360;DHT22;1693;49.602;11.046;2024-03-07T07:05:39;2.70;99.90
3360;DHT22;1693;49.602;11.046;2024-03-07T07:08:12;2.90;99.90
3360;DHT22;1693;49.602;11.046;2024-03-07T07:10:42;2.90;99.90
3360;DHT22;1693;49.602;11.046;2024-03-07T07:13:11;2.90;99.90
3360;DHT22;1693;49.602;11.046;2024-03-07T07:15:39;3.00;99.90
3360;DHT22;1693;49.602;11.046;2024-03-07T07:18:07;3.10;99.90
3360;DHT22;1693;49.602;11.046;2024-03-07T07:20:35;3.20;99.90
3360;DHT22;1693;49.602;11.046;2024-03-07T07:23:03;3.30;99.90
3360;DHT22;1693;49.602;11.046;2024-03-07T07:25:33;3.30;99.90
3360;DHT22;1693;49.602;11.046;2024-03-07T07:28:00;3.50;99.90
3360;DHT22;1693;49.602;11.046;2024-03-07T07:30:30;3.50;99.90
3360;DHT22;1693;49.602;11.046;2024-03-07T07:32:57;3.70;99.90
3360;DHT22;1693;49.602;11.046;2024-03-07T07:35:25;3.90;99.90
3360;DHT22;1693;49.602;11.046;2024-03-07T07:37:53;4.00;99.90
3360;DHT22;1693;49.602;11.046;2024-03-07T07:40:22;3.90;99.90
3360;DHT22;1693;49.602;11.046;2024-03-07T07:42:52;3.90;99.90
3360;DHT22;1693;49.602;11.046;2024-03-07T07:45:21;3.70;99.90
3360;DHT22;1693;49.602;11.046;2024-03-07T07:47:50;3.50;99.90
3360;DHT22;1693;49.602;11.046;2024-03-07T07:50:19;3.40;99.90
3360;DHT22;1693;49.602;11.046;2024-03-07T07:52:48;3.40;99.90
3360;DHT22;1693;49.602;11.046;2024-03-07T07:55:16;3.40;99.90
3360;DHT22;1693;49.602;11.046;2024-03-07T07:57:44;3.50;99.90
3360;DHT22;1693;49.602;11.046;2024-03-07T08:00:15;3.40;99.90
3360;DHT22;1693;49.602;11.046;2024-03-07T08:02:53;3.50;99.90
3360;DHT22;1693;49.602;11.046;2024-03-07T08:05:22;3.60;99.90
3360;DHT22;1693;49.602;11.046;2024-03-07T08:07:50;3.80;99.90
3360;DHT22;1693;49.602;11.046;2024-03-07T08:10:19;3.90;99.90
3360;DHT22;1693;49.602;11.046;2024-03-07T08:12:48;4.00;99.90
3360;DHT22;1693;49.602;11.046;2024-03-07T08:15:18;4.30;99.90
3360;DHT22;1693;49.602;11.046;2024-03-07T08:17:47;4.40;99.90
3360;DHT22;1693;49.602;11.046;2024-03-07T08:20:19;4.30;99.90
3360;DHT22;1693;49.602;11.046;2024-03-07T08:22:49;4.40;99.90
3360;DHT22;1693;49.602;11.046;2024-03-07T08:25:19;4.60;99.90
3360;DHT22;1693;49.602;11.046;2024-03-07T08:27:48;4.60;99.90
3360;DHT22;1693;49.602;11.046;2024-03-07T08:30:17;4.50;99.90
3360;DHT22;1693;49.602;11.046;2024-03-07T08:32:46;4.60;99.90
3360;DHT22;1693;49.602;11.046;2024-03-07T08:35:14;4.70;99.90
3360;DHT22;1693;49.602;11.046;2024-03-07T08:37:44;5.00;99.90
3360;DHT22;1693;49.602;11.046;2024-03-07T08:40:13;5.30;99.90
3360;DHT22;1693;49.602;11.046;2024-03-07T08:42:46;5.20;99.90
3360;DHT22;1693;49.602;11.046;2024-03-07T08:45:13;5.30;99.90
3360;DHT22;1693;49.602;11.046;2024-03-07T08:47:47;5.40;99.90
3360;DHT22;1693;49.602;11.046;2024-03-07T08:50:17;5.40;99.90
3360;DHT22;1693;49.602;11.046;2024-03-07T08:52:45;5.50;99.90
3360;DHT22;1693;49.602;11.046;2024-03-07T08:55:14;5.40;99.90
3360;DHT22;1693;49.602;11.046;2024-03-07T08:57:43;5.80;99.90
3360;DHT22;1693;49.602;11.046;2024-03-07T09:00:12;6.20;99.90
3360;DHT22;1693;49.602;11.046;2024-03-07T09:02:49;6.20;99.90
3360;DHT22;1693;49.602;11.046;2024-03-07T09:05:18;6.30;99.90
3360;DHT22;1693;49.602;11.046;2024-03-07T09:07:46;6.10;99.90
3360;DHT22;1693;49.602;11.046;2024-03-07T09:10:13;6.40;99.90
3360;DHT22;1693;49.602;11.046;2024-03-07T09:12:42;6.70;99.90
3360;DHT22;1693;49.602;11.046;2024-03-07T09:15:09;6.70;99.90
3360;DHT22;1693;49.602;11.046;2024-03-07T09:17:37;6.70;99.90
3360;DHT22;1693;49.602;11.046;2024-03-07T09:20:07;6.80;99.90
3360;DHT22;1693;49.602;11.046;2024-03-07T09:22:40;6.80;99.90
3360;DHT22;1693;49.602;11.046;2024-03-07T09:25:08;6.90;99.90
3360;DHT22;1693;49.602;11.046;2024-03-07T09:27:36;6.80;99.90
3360;DHT22;1693;49.602;11.046;2024-03-07T09:30:04;6.80;99.90
3360;DHT22;1693;49.602;11.046;2024-03-07T09:32:34;6.90;99.90
3360;DHT22;1693;49.602;11.046;2024-03-07T09:35:03;6.80;99.90
3360;DHT22;1693;49.602;11.046;2024-03-07T09:37:34;6.60;99.90
3360;DHT22;1693;49.602;11.046;2024-03-07T09:40:01;7.10;99.90
3360;DHT22;1693;49.602;11.046;2024-03-07T09:42:30;7.70;99.90
3360;DHT22;1693;49.602;11.046;2024-03-07T09:44:58;7.70;99.90
3360;DHT22;1693;49.602;11.046;2024-03-07T09:47:27;7.70;99.90
3360;DHT22;1693;49.602;11.046;2024-03-07T09:49:56;7.70;99.90
3360;DHT22;1693;49.602;11.046;2024-03-07T09:52:24;7.80;99.90
3360;DHT22;1693;49.602;11.046;2024-03-07T09:54:54;8.00;99.90
3360;DHT22;1693;49.602;11.046;2024-03-07T09:57:22;8.00;99.90
3360;DHT22;1693;49.602;11.046;2024-03-07T09:59:50;8.10;99.90
3360;DHT22;1693;49.602;11.046;2024-03-07T10:02:18;8.50;99.90
3360;DHT22;1693;49.602;11.046;2024-03-07T10:04:48;7.90;99.90
3360;DHT22;1693;49.602;11.046;2024-03-07T10:07:18;8.10;99.90
3360;DHT22;1693;49.602;11.046;2024-03-07T10:09:46;8.50;99.90
3360;DHT22;1693;49.602;11.046;2024-03-07T10:12:15;8.50;99.90
3360;DHT22;1693;49.602;11.046;2024-03-07T10:14:48;8.80;99.90
3360;DHT22;1693;49.602;11.046;2024-03-07T10:17:16;9.20;99.90
3360;DHT22;1693;49.602;11.046;2024-03-07T10:19:46;9.00;99.90
3360;DHT22;1693;49.602;11.046;2024-03-07T10:22:15;8.60;99.90
3360;DHT22;1693;49.602;11.046;2024-03-07T10:24:49;8.90;99.90
3360;DHT22;1693;49.602;11.046;2024-03-07T10:27:19;9.00;99.90
3360;DHT22;1693;49.602;11.046;2024-03-07T10:29:47;9.20;99.90
3360;DHT22;1693;49.602;11.046;2024-03-07T10:32:19;8.90;99.90
3360;DHT22;1693;49.602;11.046;2024-03-07T10:34:46;9.50;99.90
3360;DHT22;1693;49.602;11.046;2024-03-07T10:37:14;9.60;99.90
3360;DHT22;1693;49.602;11.046;2024-03-07T10:39:45;9.70;99.90
3360;DHT22;1693;49.602;11.046;2024-03-07T10:42:14;9.30;99.90
3360;DHT22;1693;49.602;11.046;2024-03-07T10:44:45;9.00;99.90
3360;DHT22;1693;49.602;11.046;2024-03-07T10:47:17;8.40;99.90
3360;DHT22;1693;49.602;11.046;2024-03-07T10:49:55;8.40;99.90
3360;DHT22;1693;49.602;11.046;2024-03-07T10:52:29;8.20;99.90
3360;DHT22;1693;49.602;11.046;2024-03-07T10:55:08;8.10;99.90
3360;DHT22;1693;49.602;11.046;2024-03-07T10:57:41;8.20;99.90
3360;DHT22;1693;49.602;11.046;2024-03-07T11:00:12;8.10;99.90
3360;DHT22;1693;49.602;11.046;2024-03-07T11:02:56;8.10;99.90
3360;DHT22;1693;49.602;11.046;2024-03-07T11:05:25;7.90;99.90
3360;DHT22;1693;49.602;11.046;2024-03-07T11:07:57;8.00;99.90
3360;DHT22;1693;49.602;11.046;2024-03-07T11:10:25;8.00;99.90
3360;DHT22;1693;49.602;11.046;2024-03-07T11:12:53;8.50;99.90
3360;DHT22;1693;49.602;11.046;2024-03-07T11:15:23;8.70;99.90
3360;DHT22;1693;49.602;11.046;2024-03-07T11:17:54;8.80;99.90
3360;DHT22;1693;49.602;11.046;2024-03-07T11:20:22;8.70;99.90
3360;DHT22;1693;49.602;11.046;2024-03-07T11:22:49;9.00;99.90
3360;DHT22;1693;49.602;11.046;2024-03-07T11:25:20;8.70;99.90
3360;DHT22;1693;49.602;11.046;2024-03-07T11:27:51;8.50;99.90
3360;DHT22;1693;49.602;11.046;2024-03-07T11:30:19;8.50;99.90
3360;DHT22;1693;49.602;11.046;2024-03-07T11:32:49;8.60;99.90
3360;DHT22;1693;49.602;11.046;2024-03-07T11:35:19;8.80;99.90
3360;DHT22;1693;49.602;11.046;2024-03-07T11:37:56;9.30;99.90
3360;DHT22;1693;49.602;11.046;2024-03-07T11:40:45;9.10;99.90
3360;DHT22;1693;49.602;11.046;2024-03-07T11:43:14;8.70;99.90
3360;DHT22;1693;49.602;11.046;2024-03-07T11:45:41;8.90;99.90
3360;DHT22;1693;49.602;11.046;2024-03-07T11:48:14;8.90;99.90
3360;DHT22;1693;49.602;11.046;2024-03-07T11:50:41;9.10;99.90
3360;DHT22;1693;49.602;11.046;2024-03-07T11:53:09;9.10;99.90
3360;DHT22;1693;49.602;11.046;2024-03-07T11:55:37;9.00;99.90
3360;DHT22;1693;49.602;11.046;2024-03-07T11:58:12;9.10;99.90
3360;DHT22;1693;49.602;11.046;2024-03-07T12:00:40;9.20;99.90
3360;DHT22;1693;49.602;11.046;2024-03-07T12:03:13;9.00;99.90
3360;DHT22;1693;49.602;11.046;2024-03-07T12:05:43;9.00;99.90
3360;DHT22;1693;49.602;11.046;2024-03-07T12:08:10;9.30;99.90
3360;DHT22;1693;49.602;11.046;2024-03-07T12:10:38;9.30;99.90
3360;DHT22;1693;49.602;11.046;2024-03-07T12:13:06;9.70;99.90
3360;DHT22;1693;49.602;11.046;2024-03-07T12:15:35;9.70;99.90
3360;DHT22;1693;49.602;11.046;2024-03-07T12:18:05;9.80;99.90
3360;DHT22;1693;49.602;11.046;2024-03-07T12:20:40;9.90;99.90
3360;DHT22;1693;49.602;11.046;2024-03-07T12:23:08;9.20;99.90
3360;DHT22;1693;49.602;11.046;2024-03-07T12:25:38;9.10;99.90
3360;DHT22;1693;49.602;11.046;2024-03-07T12:28:07;9.30;99.90
3360;DHT22;1693;49.602;11.046;2024-03-07T12:30:47;8.80;99.90
3360;DHT22;1693;49.602;11.046;2024-03-07T12:33:17;9.00;99.90
3360;DHT22;1693;49.602;11.046;2024-03-07T12:35:46;8.60;99.90
3360;DHT22;1693;49.602;11.046;2024-03-07T12:38:15;9.00;99.90
3360;DHT22;1693;49.602;11.046;2024-03-07T12:40:43;9.00;99.90
3360;DHT22;1693;49.602;11.046;2024-03-07T12:43:19;8.90;99.90
3360;DHT22;1693;49.602;11.046;2024-03-07T12:45:48;8.80;99.90
3360;DHT22;1693;49.602;11.046;2024-03-07T12:48:16;8.90;99.90
3360;DHT22;1693;49.602;11.046;2024-03-07T12:50:47;8.70;99.90
3360;DHT22;1693;49.602;11.046;2024-03-07T12:53:18;8.80;99.90
3360;DHT22;1693;49.602;11.046;2024-03-07T12:55:46;8.90;99.90
3360;DHT22;1693;49.602;11.046;2024-03-07T12:58:13;8.70;99.90
3360;DHT22;1693;49.602;11.046;2024-03-07T13:00:40;8.60;99.90
3360;DHT22;1693;49.602;11.046;2024-03-07T13:03:08;8.70;99.90
3360;DHT22;1693;49.602;11.046;2024-03-07T13:05:35;8.60;99.90
3360;DHT22;1693;49.602;11.046;2024-03-07T13:08:07;8.70;99.90
3360;DHT22;1693;49.602;11.046;2024-03-07T13:10:37;8.70;99.90
3360;DHT22;1693;49.602;11.046;2024-03-07T13:13:05;8.80;99.90
3360;DHT22;1693;49.602;11.046;2024-03-07T13:15:32;8.90;99.90
3360;DHT22;1693;49.602;11.046;2024-03-07T13:18:04;8.70;99.90
3360;DHT22;1693;49.602;11.046;2024-03-07T13:20:34;8.60;99.90
3360;DHT22;1693;49.602;11.046;2024-03-07T13:23:03;8.70;99.90
3360;DHT22;1693;49.602;11.046;2024-03-07T13:25:33;8.60;99.90
3360;DHT22;1693;49.602;11.046;2024-03-07T13:28:08;8.60;99.90
3360;DHT22;1693;49.602;11.046;2024-03-07T13:30:42;8.50;99.90
3360;DHT22;1693;49.602;11.046;2024-03-07T13:33:14;8.40;99.90
3360;DHT22;1693;49.602;11.046;2024-03-07T13:35:45;8.40;99.90
3360;DHT22;1693;49.602;11.046;2024-03-07T13:38:15;8.50;99.90
3360;DHT22;1693;49.602;11.046;2024-03-07T13:40:46;8.60;99.90
3360;DHT22;1693;49.602;11.046;2024-03-07T13:43:15;8.60;99.90
3360;DHT22;1693;49.602;11.046;2024-03-07T13:45:45;8.60;99.90
3360;DHT22;1693;49.602;11.046;2024-03-07T13:48:15;8.70;99.90
3360;DHT22;1693;49.602;11.046;2024-03-07T13:50:43;8.90;99.90
3360;DHT22;1693;49.602;11.046;2024-03-07T13:53:11;9.00;99.90
3360;DHT22;1693;49.602;11.046;2024-03-07T13:56:02;8.90;99.90
3360;DHT22;1693;49.602;11.046;2024-03-07T13:58:52;8.80;99.90
3360;DHT22;1693;49.602;11.046;2024-03-07T14:01:33;8.80;99.90
3360;DHT22;1693;49.602;11.046;2024-03-07T14:04:27;8.90;99.90
3360;DHT22;1693;49.602;11.046;2024-03-07T14:07:16;8.80;99.90
3360;DHT22;1693;49.602;11.046;2024-03-07T14:13:24;8.40;99.90
3360;DHT22;1693;49.602;11.046;2024-03-07T14:16:21;8.60;99.90
3360;DHT22;1693;49.602;11.046;2024-03-07T14:22:34;8.70;99.90
3360;DHT22;1693;49.602;11.046;2024-03-07T14:28:42;8.50;99.90
3360;DHT22;1693;49.602;11.046;2024-03-07T14:31:13;8.50;99.90
3360;DHT22;1693;49.602;11.046;2024-03-07T14:34:00;8.40;99.90
3360;DHT22;1693;49.602;11.046;2024-03-07T14:36:37;8.40;99.90
3360;DHT22;1693;49.602;11.046;2024-03-07T14:39:06;8.30;99.90
3360;DHT22;1693;49.602;11.046;2024-03-07T14:41:51;8.20;99.90
3360;DHT22;1693;49.602;11.046;2024-03-07T14:44:24;8.10;99.90
3360;DHT22;1693;49.602;11.046;2024-03-07T14:46:57;8.20;99.90
3360;DHT22;1693;49.602;11.046;2024-03-07T14:49:25;8.00;99.90
3360;DHT22;1693;49.602;11.046;2024-03-07T14:51:56;8.00;99.90
3360;DHT22;1693;49.602;11.046;2024-03-07T14:54:24;8.20;99.90
3360;DHT22;1693;49.602;11.046;2024-03-07T14:56:53;8.20;99.90
3360;DHT22;1693;49.602;11.046;2024-03-07T14:59:27;8.20;99.90
3360;DHT22;1693;49.602;11.046;2024-03-07T15:01:54;8.20;99.90
3360;DHT22;1693;49.602;11.046;2024-03-07T15:04:24;8.20;99.90
3360;DHT22;1693;49.602;11.046;2024-03-07T15:06:52;8.10;99.90
3360;DHT22;1693;49.602;11.046;2024-03-07T15:09:24;8.00;99.90
3360;DHT22;1693;49.602;11.046;2024-03-07T15:11:55;8.10;99.90
3360;DHT22;1693;49.602;11.046;2024-03-07T15:14:25;8.20;99.90
3360;DHT22;1693;49.602;11.046;2024-03-07T15:16:53;8.10;99.90
3360;DHT22;1693;49.602;11.046;2024-03-07T15:19:20;8.00;99.90
3360;DHT22;1693;49.602;11.046;2024-03-07T15:21:50;8.00;99.90
3360;DHT22;1693;49.602;11.046;2024-03-07T15:24:18;7.80;99.90
3360;DHT22;1693;49.602;11.046;2024-03-07T15:26:47;7.70;99.90
3360;DHT22;1693;49.602;11.046;2024-03-07T15:29:16;7.70;99.90
3360;DHT22;1693;49.602;11.046;2024-03-07T15:31:48;7.70;99.90
3360;DHT22;1693;49.602;11.046;2024-03-07T15:34:16;7.50;99.90
3360;DHT22;1693;49.602;11.046;2024-03-07T15:36:43;7.50;99.90
3360;DHT22;1693;49.602;11.046;2024-03-07T15:39:11;7.60;99.90
3360;DHT22;1693;49.602;11.046;2024-03-07T15:41:52;7.60;99.90
3360;DHT22;1693;49.602;11.046;2024-03-07T15:44:20;7.60;99.90
3360;DHT22;1693;49.602;11.046;2024-03-07T15:46:49;7.40;99.90
3360;DHT22;1693;49.602;11.046;2024-03-07T15:49:17;7.30;99.90
3360;DHT22;1693;49.602;11.046;2024-03-07T15:51:44;7.40;99.90
3360;DHT22;1693;49.602;11.046;2024-03-07T15:54:11;7.50;99.90
3360;DHT22;1693;49.602;11.046;2024-03-07T15:56:44;7.40;99.90
3360;DHT22;1693;49.602;11.046;2024-03-07T15:59:11;7.30;99.90
3360;DHT22;1693;49.602;11.046;2024-03-07T16:01:38;7.30;99.90
3360;DHT22;1693;49.602;11.046;2024-03-07T16:04:06;7.30;99.90
3360;DHT22;1693;49.602;11.046;2024-03-07T16:06:33;7.20;99.90
3360;DHT22;1693;49.602;11.046;2024-03-07T16:09:00;7.10;99.90
3360;DHT22;1693;49.602;11.046;2024-03-07T16:11:27;7.10;99.90
3360;DHT22;1693;49.602;11.046;2024-03-07T16:13:54;7.00;99.90
3360;DHT22;1693;49.602;11.046;2024-03-07T16:16:22;6.90;99.90
3360;DHT22;1693;49.602;11.046;2024-03-07T16:18:49;6.80;99.90
3360;DHT22;1693;49.602;11.046;2024-03-07T16:21:19;6.80;99.90
3360;DHT22;1693;49.602;11.046;2024-03-07T16:23:48;6.70;99.90
3360;DHT22;1693;49.602;11.046;2024-03-07T16:26:19;6.70;99.90